Time;durP1;ratioP1;P1;durP2;ratioP2;P2;SDS_P1;SDS_P2;PMS_P1;PMS_P2;Temp;Humidity;BMP_temperature;BMP_pressure;BME280_temperature;BME280_humidity;BME280_pressure;Samples;Min_cycle;Max_cycle;Signal;HPM_P1;HPM_P2
2023/10/17 09:21:47;;;;;;;3.13;2.30;;;;;;;;;;5726552;23;20049;-68
2023/10/17 09:24:36;;;;;;;2.85;2.22;;;;;;;;;;4969314;28;20507;-68
2023/10/17 09:27:09;;;;;;;3.05;2.40;;;;;;;;;;4971776;28;20065;-69
2023/10/17 09:30:01;;;;;;;3.42;2.40;;;;;;;;;;4972142;28;20031;-68
2023/10/17 09:32:30;;;;;;;4.07;2.45;;;;;;;;;;4968340;28;20035;-69
2023/10/17 09:34:56;;;;;;;3.00;2.53;;;;;;;;;;4972191;28;20439;-71
2023/10/17 09:37:22;;;;;;;2.95;2.55;;;;;;;;;;4972031;28;20391;-68
2023/10/17 09:39:47;;;;;;;3.50;2.42;;;;;;;;;;4971981;28;20027;-67
2023/10/17 09:42:14;;;;;;;3.00;2.10;;;;;;;;;;4971915;28;20027;-69
2023/10/17 09:44:40;;;;;;;4.13;2.80;;;;;;;;;;4971768;28;20113;-70
2023/10/17 09:47:08;;;;;;;3.40;2.40;;;;;;;;;;4971982;28;20395;-70
2023/10/17 09:49:44;;;;;;;3.70;2.50;;;;;;;;;;4954546;28;20055;-69
2023/10/17 09:52:10;;;;;;;5.88;2.55;;;;;;;;;;4954734;28;20475;-69
2023/10/17 09:54:40;;;;;;;4.05;2.45;;;;;;;;;;4971863;28;20122;-70
2023/10/17 09:57:13;;;;;;;2.60;2.35;;;;;;;;;;4971932;28;20537;-70
2023/10/17 10:00:05;;;;;;;2.85;2.60;;;;;;;;;;4971791;28;20031;-69
2023/10/17 10:02:36;;;;;;;3.38;2.53;;;;;;;;;;4958175;28;20058;-68
2023/10/17 10:05:21;;;;;;;2.60;2.30;;;;;;;;;;4963329;28;20051;-70
2023/10/17 10:07:46;;;;;;;3.05;2.38;;;;;;;;;;4971878;28;20419;-73
2023/10/17 10:10:44;;;;;;;3.90;2.83;;;;;;;;;;4971972;28;20027;-70
2023/10/17 10:13:19;;;;;;;2.53;2.30;;;;;;;;;;4969951;28;20038;-71
2023/10/17 10:16:04;;;;;;;3.17;2.47;;;;;;;;;;4954307;28;20126;-70
2023/10/17 10:18:35;;;;;;;2.58;1.95;;;;;;;;;;4952631;28;20114;-70
2023/10/17 10:21:05;;;;;;;3.42;2.58;;;;;;;;;;4952105;29;20555;-71
2023/10/17 10:23:42;;;;;;;3.75;2.42;;;;;;;;;;4952364;29;20035;-69
2023/10/17 10:26:19;;;;;;;5.18;2.67;;;;;;;;;;4952184;29;20403;-68
2023/10/17 10:28:49;;;;;;;3.72;2.70;;;;;;;;;;4952349;29;20063;-71
2023/10/17 10:31:24;;;;;;;4.10;2.60;;;;;;;;;;4952584;29;20098;-70
2023/10/17 10:33:53;;;;;;;3.72;2.03;;;;;;;;;;4959778;28;20114;-70
2023/10/17 10:36:23;;;;;;;2.75;2.10;;;;;;;;;;4961148;28;20035;-70
2023/10/17 10:38:49;;;;;;;3.88;2.28;;;;;;;;;;4969580;28;20029;-71
2023/10/17 10:41:15;;;;;;;4.15;1.85;;;;;;;;;;4975142;28;20395;-68
2023/10/17 10:43:44;;;;;;;2.97;2.22;;;;;;;;;;4974855;28;20027;-71
2023/10/17 10:46:14;;;;;;;5.15;2.60;;;;;;;;;;4974840;28;20061;-70
2023/10/17 10:48:51;;;;;;;3.30;2.25;;;;;;;;;;4974697;28;20034;-70
2023/10/17 10:51:17;;;;;;;3.28;2.13;;;;;;;;;;4974779;28;20019;-71
2023/10/17 10:53:46;;;;;;;4.65;2.10;;;;;;;;;;4957026;28;20023;-70
2023/10/17 10:56:13;;;;;;;2.80;2.30;;;;;;;;;;4974600;28;20023;-72
2023/10/17 10:58:48;;;;;;;2.97;2.60;;;;;;;;;;4974525;28;20051;-69
2023/10/17 11:01:15;;;;;;;2.92;2.22;;;;;;;;;;4974143;28;20023;-68
2023/10/17 11:03:41;;;;;;;2.67;2.47;;;;;;;;;;4974688;28;20031;-68
2023/10/17 11:06:10;;;;;;;2.55;2.05;;;;;;;;;;4974158;28;20074;-69
2023/10/17 11:08:37;;;;;;;7.38;4.32;;;;;;;;;;4974197;28;20118;-69
2023/10/17 11:11:03;;;;;;;8.60;5.90;;;;;;;;;;4973163;28;20073;-68
2023/10/17 11:13:38;;;;;;;3.80;2.50;;;;;;;;;;4974597;28;20035;-68
2023/10/17 11:16:07;;;;;;;6.25;4.03;;;;;;;;;;4973597;28;20031;-68
2023/10/17 11:18:39;;;;;;;4.63;3.17;;;;;;;;;;4974571;28;20037;-68
2023/10/17 11:21:08;;;;;;;3.95;2.80;;;;;;;;;;4974190;28;20094;-68
2023/10/17 11:23:35;;;;;;;2.88;2.10;;;;;;;;;;4973698;28;20056;-68
2023/10/17 11:26:11;;;;;;;5.28;4.18;;;;;;;;;;4973294;28;20027;-68
2023/10/17 11:28:42;;;;;;;6.13;4.03;;;;;;;;;;4974074;28;20432;-69
2023/10/17 11:31:24;;;;;;;5.47;4.38;;;;;;;;;;4956621;28;20426;-68
2023/10/17 11:34:04;;;;;;;5.80;3.53;;;;;;;;;;4973976;28;20037;-68
2023/10/17 11:36:54;;;;;;;4.72;3.85;;;;;;;;;;4956735;28;20169;-69
2023/10/17 11:39:20;;;;;;;6.13;3.85;;;;;;;;;;4966595;28;20038;-68
2023/10/17 11:41:53;;;;;;;5.82;3.50;;;;;;;;;;4973781;28;20479;-68
2023/10/17 11:44:23;;;;;;;5.10;3.63;;;;;;;;;;4973806;28;20257;-68
2023/10/17 11:46:55;;;;;;;4.60;3.30;;;;;;;;;;4973695;28;20066;-69
2023/10/17 11:49:31;;;;;;;4.00;3.30;;;;;;;;;;4973708;28;20160;-69
2023/10/17 11:52:09;;;;;;;5.93;3.50;;;;;;;;;;4972564;28;20034;-68
2023/10/17 11:55:20;;;;;;;5.72;4.25;;;;;;;;;;4973546;28;20027;-68
2023/10/17 11:57:49;;;;;;;6.75;3.72;;;;;;;;;;4972946;28;20043;-68
2023/10/17 12:02:47;;;;;;;4.45;3.60;;;;;;;;;;4973777;28;20027;-68
2023/10/17 12:05:20;;;;;;;6.67;3.50;;;;;;;;;;4973567;28;20027;-69
2023/10/17 12:07:49;;;;;;;4.80;3.38;;;;;;;;;;4973668;28;20034;-68
2023/10/17 12:10:17;;;;;;;4.30;3.55;;;;;;;;;;4973277;28;20471;-68
2023/10/17 12:12:43;;;;;;;4.43;3.50;;;;;;;;;;4973223;28;20026;-68
2023/10/17 12:15:13;;;;;;;4.65;3.58;;;;;;;;;;4973091;28;20498;-69
2023/10/17 12:17:43;;;;;;;5.25;3.55;;;;;;;;;;4973186;28;20117;-68
2023/10/17 12:20:13;;;;;;;4.18;3.63;;;;;;;;;;4973022;28;20034;-68
2023/10/17 12:22:39;;;;;;;5.00;3.70;;;;;;;;;;4972968;28;20128;-68
2023/10/17 12:25:06;;;;;;;4.85;3.30;;;;;;;;;;4973203;28;20034;-68
2023/10/17 12:27:31;;;;;;;4.45;3.80;;;;;;;;;;4972917;28;20106;-68
2023/10/17 12:29:57;;;;;;;3.90;3.28;;;;;;;;;;4955835;28;20256;-68
2023/10/17 12:32:23;;;;;;;4.88;3.63;;;;;;;;;;4972883;28;20164;-68
2023/10/17 12:34:49;;;;;;;4.70;3.53;;;;;;;;;;4972876;28;20065;-68
2023/10/17 12:37:17;;;;;;;4.65;3.20;;;;;;;;;;4955366;28;20145;-68
2023/10/17 12:39:43;;;;;;;4.15;3.40;;;;;;;;;;4973108;28;20093;-68
2023/10/17 12:42:10;;;;;;;4.93;3.60;;;;;;;;;;4972587;28;20026;-68
2023/10/17 12:44:36;;;;;;;4.50;3.60;;;;;;;;;;4972669;28;20497;-68
2023/10/17 12:47:01;;;;;;;4.60;3.42;;;;;;;;;;4972559;28;20035;-68
2023/10/17 12:49:28;;;;;;;4.68;3.50;;;;;;;;;;4972713;28;20034;-68
2023/10/17 12:51:53;;;;;;;4.32;3.33;;;;;;;;;;4972943;28;20041;-68
2023/10/17 12:54:19;;;;;;;5.47;3.67;;;;;;;;;;4972748;28;20023;-69
2023/10/17 12:56:44;;;;;;;4.35;3.35;;;;;;;;;;4972487;28;20050;-68
2023/10/17 12:59:13;;;;;;;3.92;3.38;;;;;;;;;;4972451;28;20034;-68
2023/10/17 13:01:41;;;;;;;4.35;3.25;;;;;;;;;;4972140;28;20026;-67
2023/10/17 13:04:09;;;;;;;3.88;3.30;;;;;;;;;;4972192;28;20061;-68
2023/10/17 13:06:35;;;;;;;4.80;3.40;;;;;;;;;;4963823;28;20435;-69
2023/10/17 13:09:01;;;;;;;5.70;3.20;;;;;;;;;;4953013;29;20038;-69
2023/10/17 13:11:27;;;;;;;3.85;3.13;;;;;;;;;;4953154;29;20114;-68
2023/10/17 13:13:54;;;;;;;4.00;3.55;;;;;;;;;;4935531;29;20473;-67
2023/10/17 13:16:23;;;;;;;4.22;3.50;;;;;;;;;;4954084;28;20019;-71
2023/10/17 13:18:50;;;;;;;5.28;3.30;;;;;;;;;;4952879;28;20028;-67
2023/10/17 13:21:17;;;;;;;4.35;3.10;;;;;;;;;;4952579;28;20074;-68
2023/10/17 13:23:46;;;;;;;3.65;3.25;;;;;;;;;;4952899;29;20031;-68
2023/10/17 13:26:13;;;;;;;3.93;3.30;;;;;;;;;;4952974;29;20113;-67
2023/10/17 13:28:39;;;;;;;3.85;3.05;;;;;;;;;;4952824;28;20031;-70
2023/10/17 13:31:10;;;;;;;3.83;3.33;;;;;;;;;;4953050;29;20078;-67
2023/10/17 13:33:36;;;;;;;3.80;3.05;;;;;;;;;;4953047;28;20023;-68
2023/10/17 13:36:01;;;;;;;4.82;3.33;;;;;;;;;;4953006;28;20459;-68
2023/10/17 13:38:27;;;;;;;3.95;2.78;;;;;;;;;;4952665;29;20027;-67
2023/10/17 13:41:01;;;;;;;4.47;3.20;;;;;;;;;;4952385;29;20031;-67
2023/10/17 13:43:27;;;;;;;5.63;3.33;;;;;;;;;;4951841;29;20031;-67
2023/10/17 13:45:52;;;;;;;8.25;3.75;;;;;;;;;;4934450;29;20515;-67
2023/10/17 13:48:18;;;;;;;5.03;3.10;;;;;;;;;;4950908;29;20122;-67
2023/10/17 13:50:45;;;;;;;7.78;3.80;;;;;;;;;;4950745;29;20544;-67
2023/10/17 13:53:16;;;;;;;5.50;3.58;;;;;;;;;;4952174;29;20496;-67
2023/10/17 13:55:42;;;;;;;7.07;3.20;;;;;;;;;;4952743;29;20031;-67
2023/10/17 13:58:08;;;;;;;5.15;3.25;;;;;;;;;;4952490;28;20027;-67
2023/10/17 14:00:42;;;;;;;5.03;3.30;;;;;;;;;;4952417;29;20086;-67
2023/10/17 14:03:14;;;;;;;7.85;3.22;;;;;;;;;;4969518;28;20031;-67
2023/10/17 14:05:49;;;;;;;5.70;3.00;;;;;;;;;;4971983;28;20056;-67
2023/10/17 14:08:22;;;;;;;5.43;3.10;;;;;;;;;;4971643;28;20028;-67
2023/10/17 14:10:48;;;;;;;6.97;3.38;;;;;;;;;;4971767;28;20057;-67
2023/10/17 14:13:16;;;;;;;5.30;3.30;;;;;;;;;;4971749;28;20037;-68
2023/10/17 14:15:42;;;;;;;7.53;3.00;;;;;;;;;;4961603;28;20027;-67
2023/10/17 14:18:14;;;;;;;8.60;3.80;;;;;;;;;;4956097;29;20112;-68
2023/10/17 14:23:29;;;;;;;6.80;3.08;;;;;;;;;;4897479;29;20457;-67
2023/10/17 14:26:11;;;;;;;6.68;3.25;;;;;;;;;;4917581;29;20032;-67
2023/10/17 14:28:37;;;;;;;4.10;3.10;;;;;;;;;;4917667;29;20056;-67
2023/10/17 14:31:05;;;;;;;4.28;2.90;;;;;;;;;;4925000;29;20059;-67
2023/10/17 14:33:34;;;;;;;3.53;2.90;;;;;;;;;;4936652;29;20024;-67
2023/10/17 14:36:04;;;;;;;5.78;2.90;;;;;;;;;;4936553;29;20027;-66
2023/10/17 14:38:31;;;;;;;4.75;3.08;;;;;;;;;;4936557;29;20042;-67
2023/10/17 14:40:58;;;;;;;8.07;3.00;;;;;;;;;;4936622;29;20086;-66
2023/10/17 14:43:25;;;;;;;3.95;2.75;;;;;;;;;;4936318;29;20078;-67
2023/10/17 14:45:53;;;;;;;4.32;2.92;;;;;;;;;;4936607;29;20032;-67
2023/10/17 14:48:20;;;;;;;5.18;3.00;;;;;;;;;;4936311;29;20051;-67
2023/10/17 14:50:46;;;;;;;5.38;2.72;;;;;;;;;;4936244;29;20036;-67
2023/10/17 14:53:11;;;;;;;5.95;3.17;;;;;;;;;;4936267;29;20384;-66
2023/10/17 14:55:38;;;;;;;3.58;2.50;;;;;;;;;;4936491;29;20031;-67
2023/10/17 14:58:06;;;;;;;7.28;2.90;;;;;;;;;;4936027;29;20045;-67
2023/10/17 15:00:34;;;;;;;4.30;2.97;;;;;;;;;;4936380;29;20388;-67
2023/10/17 15:02:59;;;;;;;5.07;2.90;;;;;;;;;;4926188;29;20066;-67
2023/10/17 15:05:25;;;;;;;4.82;2.80;;;;;;;;;;4916737;29;20059;-66
2023/10/17 15:07:51;;;;;;;7.07;3.22;;;;;;;;;;4917039;29;20032;-66
2023/10/17 15:10:17;;;;;;;5.38;3.10;;;;;;;;;;4917200;29;20032;-67
2023/10/17 15:12:47;;;;;;;3.95;2.95;;;;;;;;;;4916804;29;20082;-66
2023/10/17 15:15:16;;;;;;;5.38;2.60;;;;;;;;;;4916812;29;20028;-68
2023/10/17 15:17:42;;;;;;;4.28;2.50;;;;;;;;;;4916889;29;20040;-66
2023/10/17 15:20:13;;;;;;;2.78;2.50;;;;;;;;;;4916718;29;20054;-66
2023/10/17 15:22:44;;;;;;;6.63;3.05;;;;;;;;;;4943083;29;20528;-67
2023/10/17 15:25:12;;;;;;;4.00;2.50;;;;;;;;;;4954350;28;20070;-66
2023/10/17 15:27:42;;;;;;;4.72;2.80;;;;;;;;;;4954789;29;20031;-67
2023/10/17 15:30:08;;;;;;;5.75;3.28;;;;;;;;;;4954938;29;20471;-66
2023/10/17 15:32:35;;;;;;;4.13;2.47;;;;;;;;;;4954594;29;20034;-68
2023/10/17 15:35:01;;;;;;;4.03;2.22;;;;;;;;;;4954646;29;20825;-65
2023/10/17 15:37:28;;;;;;;5.68;2.58;;;;;;;;;;4954540;29;20062;-67
2023/10/17 15:39:53;;;;;;;4.82;2.78;;;;;;;;;;4954514;29;20502;-67
2023/10/17 15:42:19;;;;;;;4.32;2.63;;;;;;;;;;4954518;29;20027;-67
2023/10/17 15:44:48;;;;;;;10.48;2.90;;;;;;;;;;4954808;29;20090;-67
2023/10/17 15:47:14;;;;;;;2.85;2.40;;;;;;;;;;4954120;29;20141;-68
2023/10/17 15:49:39;;;;;;;4.28;3.13;;;;;;;;;;4954343;29;20429;-67
2023/10/17 15:52:05;;;;;;;4.53;2.25;;;;;;;;;;4954166;29;20058;-66
2023/10/17 15:54:32;;;;;;;6.75;2.70;;;;;;;;;;4954266;29;20090;-67
2023/10/17 15:57:00;;;;;;;5.70;2.50;;;;;;;;;;4954129;29;20511;-68
2023/10/17 15:59:26;;;;;;;6.30;2.83;;;;;;;;;;4954167;28;20051;-69
2023/10/17 16:01:52;;;;;;;3.20;2.40;;;;;;;;;;4965503;28;20029;-67
2023/10/17 16:04:18;;;;;;;3.30;2.70;;;;;;;;;;4973408;28;20138;-66
2023/10/17 16:06:44;;;;;;;4.28;2.70;;;;;;;;;;4973316;28;20482;-69
2023/10/17 16:09:15;;;;;;;4.93;2.58;;;;;;;;;;4973151;28;20081;-66
2023/10/17 16:11:42;;;;;;;4.20;2.42;;;;;;;;;;4973557;28;20390;-67
2023/10/17 16:14:10;;;;;;;3.78;2.55;;;;;;;;;;4973166;28;20027;-67
2023/10/17 16:16:37;;;;;;;2.97;2.38;;;;;;;;;;4973383;28;20431;-67
2023/10/17 16:19:03;;;;;;;4.43;2.60;;;;;;;;;;4973030;28;20515;-68
2023/10/17 16:21:29;;;;;;;3.15;2.38;;;;;;;;;;4973040;28;20055;-67
2023/10/17 16:23:55;;;;;;;5.88;2.40;;;;;;;;;;4973039;28;20034;-67
2023/10/17 16:26:23;;;;;;;4.55;2.58;;;;;;;;;;4972777;28;20031;-67
2023/10/17 16:28:50;;;;;;;10.00;2.75;;;;;;;;;;4972984;28;20027;-67
2023/10/17 16:31:16;;;;;;;5.93;3.53;;;;;;;;;;4972726;28;20033;-67
2023/10/17 16:33:41;;;;;;;5.15;2.67;;;;;;;;;;4972895;28;20031;-67
2023/10/17 16:36:07;;;;;;;7.97;2.63;;;;;;;;;;4972461;28;20159;-67
2023/10/17 16:38:36;;;;;;;5.55;2.95;;;;;;;;;;4972480;28;20033;-68
2023/10/17 16:41:01;;;;;;;4.93;2.90;;;;;;;;;;4972649;28;20046;-72
2023/10/17 16:43:31;;;;;;;6.72;2.55;;;;;;;;;;4973578;28;20147;-78
2023/10/17 16:45:59;;;;;;;6.88;2.47;;;;;;;;;;4955471;28;20039;-78
2023/10/17 16:48:26;;;;;;;3.95;2.88;;;;;;;;;;4972992;28;20086;-73
2023/10/17 16:50:55;;;;;;;7.15;3.30;;;;;;;;;;4972958;28;20499;-79
2023/10/17 16:53:21;;;;;;;7.45;3.15;;;;;;;;;;4974182;28;20038;-77
2023/10/17 16:55:47;;;;;;;6.68;2.60;;;;;;;;;;4973423;28;20038;-79
2023/10/17 16:58:12;;;;;;;8.90;2.88;;;;;;;;;;4973918;28;20062;-78
2023/10/17 17:00:38;;;;;;;4.78;3.00;;;;;;;;;;4956201;28;20037;-74
2023/10/17 17:03:05;;;;;;;3.88;2.75;;;;;;;;;;4973219;28;20114;-77
2023/10/17 17:05:31;;;;;;;8.95;3.08;;;;;;;;;;4973664;28;20035;-73
2023/10/17 17:07:57;;;;;;;9.57;3.88;;;;;;;;;;4973245;28;20660;-75
2023/10/17 17:10:23;;;;;;;33.03;9.02;;;;;;;;;;4973603;28;20031;-79
2023/10/17 17:12:48;;;;;;;30.50;7.80;;;;;;;;;;4973324;28;20038;-73
2023/10/17 17:15:15;;;;;;;34.33;7.80;;;;;;;;;;4973540;28;20031;-74
2023/10/17 17:17:41;;;;;;;28.33;6.93;;;;;;;;;;4972662;28;20030;-78
2023/10/17 17:20:14;;;;;;;15.13;5.57;;;;;;;;;;4973062;28;20031;-73
2023/10/17 17:22:44;;;;;;;21.13;5.57;;;;;;;;;;4974328;28;20055;-77
2023/10/17 17:25:13;;;;;;;13.27;5.65;;;;;;;;;;4975007;28;20376;-76
2023/10/17 17:27:40;;;;;;;12.95;4.40;;;;;;;;;;4973062;28;20110;-78
2023/10/17 17:30:07;;;;;;;12.32;4.63;;;;;;;;;;4974577;28;20055;-73
2023/10/17 17:32:36;;;;;;;8.60;4.03;;;;;;;;;;4973729;28;20027;-74
2023/10/17 17:35:03;;;;;;;10.75;4.18;;;;;;;;;;4972664;28;20038;-73
2023/10/17 17:37:29;;;;;;;13.02;4.47;;;;;;;;;;4973997;28;20038;-77
2023/10/17 17:39:55;;;;;;;12.88;4.57;;;;;;;;;;4973397;28;20029;-76
2023/10/17 17:42:21;;;;;;;9.98;4.10;;;;;;;;;;4972604;28;20041;-76
2023/10/17 17:44:47;;;;;;;9.60;4.20;;;;;;;;;;4972584;28;20027;-76
2023/10/17 17:47:13;;;;;;;11.63;4.30;;;;;;;;;;4972555;28;20031;-79
2023/10/17 17:49:38;;;;;;;17.88;4.57;;;;;;;;;;4976344;28;20085;-77
2023/10/17 17:52:04;;;;;;;12.38;4.40;;;;;;;;;;4976656;28;20026;-78
2023/10/17 17:54:30;;;;;;;8.23;4.22;;;;;;;;;;4959023;28;20026;-77
2023/10/17 17:56:55;;;;;;;14.27;4.93;;;;;;;;;;4976495;28;20031;-77
2023/10/17 17:59:21;;;;;;;9.75;4.30;;;;;;;;;;4976906;28;20027;-76
2023/10/17 18:01:46;;;;;;;10.40;4.85;;;;;;;;;;4976991;28;20086;-79
2023/10/17 18:04:12;;;;;;;9.57;4.60;;;;;;;;;;4975732;28;20043;-73
2023/10/17 18:06:40;;;;;;;7.25;4.22;;;;;;;;;;4964076;28;20033;-77
2023/10/17 18:09:06;;;;;;;12.43;4.80;;;;;;;;;;4974838;28;20046;-78
2023/10/17 18:11:35;;;;;;;11.23;4.80;;;;;;;;;;4971713;28;20507;-77
2023/10/17 18:14:00;;;;;;;12.25;4.57;;;;;;;;;;4980434;28;20320;-75
2023/10/17 18:16:33;;;;;;;12.52;4.88;;;;;;;;;;4976154;28;20298;-76
2023/10/17 18:19:03;;;;;;;10.40;4.65;;;;;;;;;;4974764;28;20034;-73
2023/10/17 18:21:32;;;;;;;14.10;4.82;;;;;;;;;;4976575;28;20182;-73
2023/10/17 18:23:58;;;;;;;12.95;4.90;;;;;;;;;;4978310;28;20118;-73
2023/10/17 18:26:24;;;;;;;9.65;4.70;;;;;;;;;;4976928;28;20106;-76
2023/10/17 18:28:49;;;;;;;8.30;4.20;;;;;;;;;;4977289;28;20035;-73
2023/10/17 18:31:16;;;;;;;12.65;4.60;;;;;;;;;;4977202;28;20025;-73
2023/10/17 18:33:44;;;;;;;7.97;4.35;;;;;;;;;;4977365;28;20034;-76
2023/10/17 18:36:11;;;;;;;10.00;4.15;;;;;;;;;;4977164;28;20042;-76
2023/10/17 18:38:37;;;;;;;7.28;4.68;;;;;;;;;;4977509;28;20070;-73
2023/10/17 18:41:04;;;;;;;9.02;4.97;;;;;;;;;;4977464;28;20434;-76
2023/10/17 18:43:29;;;;;;;9.60;4.80;;;;;;;;;;4977309;28;20019;-73
2023/10/17 18:45:58;;;;;;;10.45;4.18;;;;;;;;;;4976518;28;20085;-76
2023/10/17 18:48:24;;;;;;;10.13;5.18;;;;;;;;;;4976899;28;20022;-72
2023/10/17 18:51:03;;;;;;;8.63;5.20;;;;;;;;;;4977092;28;20041;-73
2023/10/17 18:53:31;;;;;;;13.20;4.88;;;;;;;;;;4977326;28;20081;-74
2023/10/17 18:56:01;;;;;;;8.13;4.88;;;;;;;;;;4976691;28;20033;-73
2023/10/17 18:58:27;;;;;;;7.88;4.13;;;;;;;;;;4958526;28;20035;-74
2023/10/17 19:00:58;;;;;;;9.95;4.65;;;;;;;;;;4975917;28;20035;-74
2023/10/17 19:03:24;;;;;;;8.75;4.45;;;;;;;;;;4976099;28;20073;-76
2023/10/17 19:05:49;;;;;;;8.85;4.78;;;;;;;;;;4976291;28;20046;-75
2023/10/17 19:08:15;;;;;;;8.57;4.70;;;;;;;;;;4976603;28;20030;-73
2023/10/17 19:10:40;;;;;;;10.65;4.78;;;;;;;;;;4975973;28;20034;-73
2023/10/17 19:13:06;;;;;;;9.43;4.57;;;;;;;;;;4975827;28;20121;-75
2023/10/17 19:15:32;;;;;;;13.65;4.60;;;;;;;;;;4976179;28;20027;-73
2023/10/17 19:17:58;;;;;;;10.32;5.18;;;;;;;;;;4975680;28;20039;-74
2023/10/17 19:20:24;;;;;;;7.95;4.60;;;;;;;;;;4976047;28;20031;-73
2023/10/17 19:22:49;;;;;;;7.15;4.45;;;;;;;;;;4976055;28;20078;-73
2023/10/17 19:25:15;;;;;;;7.82;4.78;;;;;;;;;;4975444;28;20480;-75
2023/10/17 19:27:40;;;;;;;11.73;4.70;;;;;;;;;;4975934;28;20030;-73
2023/10/17 19:30:07;;;;;;;8.27;5.70;;;;;;;;;;4958375;28;20377;-76
2023/10/17 19:32:33;;;;;;;9.13;4.95;;;;;;;;;;4978075;28;20105;-73
2023/10/17 19:34:58;;;;;;;10.73;4.57;;;;;;;;;;4980947;28;20436;-74
2023/10/17 19:37:24;;;;;;;9.25;4.43;;;;;;;;;;4963570;28;20041;-73
2023/10/17 19:39:50;;;;;;;20.13;5.70;;;;;;;;;;4981063;28;20121;-76
2023/10/17 19:42:17;;;;;;;11.02;5.18;;;;;;;;;;4978374;28;20030;-74
2023/10/17 19:44:43;;;;;;;13.38;5.63;;;;;;;;;;4977072;28;20029;-73
2023/10/17 19:47:09;;;;;;;12.55;4.82;;;;;;;;;;4977162;28;20129;-73
2023/10/17 19:49:34;;;;;;;13.68;5.28;;;;;;;;;;4977335;28;20035;-75
2023/10/17 19:52:00;;;;;;;11.50;5.32;;;;;;;;;;4975517;28;20031;-77
2023/10/17 19:54:28;;;;;;;9.15;4.97;;;;;;;;;;4976179;28;20023;-78
2023/10/17 19:56:54;;;;;;;9.15;4.90;;;;;;;;;;4976057;28;20471;-78
2023/10/17 19:59:20;;;;;;;12.63;5.25;;;;;;;;;;4976276;28;20026;-74
2023/10/17 20:01:46;;;;;;;9.07;5.10;;;;;;;;;;4959530;28;20224;-74
2023/10/17 20:04:11;;;;;;;8.95;4.80;;;;;;;;;;4974264;28;20027;-74
2023/10/17 20:06:37;;;;;;;13.70;5.50;;;;;;;;;;4973993;28;20027;-70
2023/10/17 20:09:07;;;;;;;11.10;5.70;;;;;;;;;;4973353;28;20432;-69
2023/10/17 20:11:33;;;;;;;15.05;5.25;;;;;;;;;;4972418;28;20570;-69
2023/10/17 20:14:00;;;;;;;13.88;5.22;;;;;;;;;;4973379;28;20537;-69
2023/10/17 20:16:29;;;;;;;9.23;5.15;;;;;;;;;;4973228;28;20083;-71
2023/10/17 20:18:56;;;;;;;10.50;5.00;;;;;;;;;;4973367;28;20058;-69
2023/10/17 20:21:22;;;;;;;9.85;4.90;;;;;;;;;;4972938;28;20047;-71
2023/10/17 20:23:49;;;;;;;12.25;5.07;;;;;;;;;;4973030;28;20042;-69
2023/10/17 20:26:16;;;;;;;11.27;4.82;;;;;;;;;;4972943;28;20035;-69
2023/10/17 20:28:41;;;;;;;7.47;4.75;;;;;;;;;;4973002;28;20034;-69
2023/10/17 20:31:07;;;;;;;10.63;5.13;;;;;;;;;;4973019;28;20030;-72
2023/10/17 20:33:42;;;;;;;10.07;5.63;;;;;;;;;;5108802;27;20424;-69
2023/10/17 20:36:08;;;;;;;9.95;5.85;;;;;;;;;;5108864;28;20089;-67
2023/10/17 20:38:35;;;;;;;11.88;5.60;;;;;;;;;;5108674;28;20031;-67
2023/10/17 20:41:06;;;;;;;11.70;5.43;;;;;;;;;;5108617;28;20213;-69
2023/10/17 20:43:32;;;;;;;11.52;4.97;;;;;;;;;;5108903;28;20461;-68
2023/10/17 20:45:58;;;;;;;10.95;5.22;;;;;;;;;;5108486;28;20048;-67
2023/10/17 20:48:24;;;;;;;12.80;5.47;;;;;;;;;;5108657;28;20024;-68
2023/10/17 20:51:02;;;;;;;13.20;4.82;;;;;;;;;;5108424;28;20032;-67
2023/10/17 20:53:28;;;;;;;12.18;5.03;;;;;;;;;;5108377;28;20035;-66
2023/10/17 20:55:53;;;;;;;10.52;5.32;;;;;;;;;;5106890;28;20032;-67
2023/10/17 20:58:19;;;;;;;10.43;5.10;;;;;;;;;;5108460;28;20119;-66
2023/10/17 21:00:44;;;;;;;10.55;5.25;;;;;;;;;;5108089;28;20521;-67
2023/10/17 21:03:10;;;;;;;10.02;5.28;;;;;;;;;;5108270;28;20070;-67
2023/10/17 21:05:36;;;;;;;9.43;4.88;;;;;;;;;;5108355;28;20036;-67
2023/10/17 21:08:03;;;;;;;10.77;5.30;;;;;;;;;;5108115;28;20441;-67
2023/10/17 21:10:37;;;;;;;11.40;5.40;;;;;;;;;;5108273;28;20028;-66
2023/10/17 21:13:04;;;;;;;6.90;5.05;;;;;;;;;;5108327;28;20425;-69
2023/10/17 21:15:30;;;;;;;13.48;5.10;;;;;;;;;;5107987;28;20487;-67
2023/10/17 21:17:56;;;;;;;7.15;4.78;;;;;;;;;;5108087;28;20059;-68
2023/10/17 21:20:22;;;;;;;8.25;4.53;;;;;;;;;;5107969;28;20479;-66
2023/10/17 21:22:52;;;;;;;8.18;5.07;;;;;;;;;;5107737;28;20027;-67
2023/10/17 21:25:18;;;;;;;10.02;5.15;;;;;;;;;;5107993;28;20028;-67
2023/10/17 21:27:45;;;;;;;10.35;5.00;;;;;;;;;;5107949;28;20468;-68
2023/10/17 21:30:12;;;;;;;9.48;5.18;;;;;;;;;;5107582;28;20031;-68
2023/10/17 21:32:38;;;;;;;10.50;5.93;;;;;;;;;;5107167;28;20142;-68
2023/10/17 21:35:07;;;;;;;10.73;5.13;;;;;;;;;;5106131;28;20024;-67
2023/10/17 21:37:35;;;;;;;9.40;4.88;;;;;;;;;;5107767;28;20027;-68
2023/10/17 21:40:01;;;;;;;8.75;5.13;;;;;;;;;;5105389;28;20039;-67
2023/10/17 21:42:26;;;;;;;10.02;5.38;;;;;;;;;;5107312;28;20024;-66
2023/10/17 21:44:52;;;;;;;9.20;4.68;;;;;;;;;;5094814;28;20415;-70
2023/10/17 21:47:19;;;;;;;8.30;5.10;;;;;;;;;;5093842;28;20490;-67
2023/10/17 21:49:45;;;;;;;14.38;5.85;;;;;;;;;;5093514;28;20067;-67
2023/10/17 21:52:10;;;;;;;8.20;5.45;;;;;;;;;;5093471;28;20138;-68
2023/10/17 21:54:36;;;;;;;9.68;5.00;;;;;;;;;;5093603;28;20031;-68
2023/10/17 21:57:02;;;;;;;7.88;5.00;;;;;;;;;;5093434;28;20043;-70
2023/10/17 21:59:28;;;;;;;13.02;5.30;;;;;;;;;;5093113;28;20032;-67
2023/10/17 22:01:56;;;;;;;8.13;4.80;;;;;;;;;;5093588;28;20063;-67
2023/10/17 22:04:23;;;;;;;10.68;5.38;;;;;;;;;;5093615;28;20028;-68
2023/10/17 22:06:48;;;;;;;12.20;4.80;;;;;;;;;;5093273;28;20052;-67
2023/10/17 22:09:16;;;;;;;11.18;5.72;;;;;;;;;;5091992;28;20055;-67
2023/10/17 22:11:42;;;;;;;7.80;5.10;;;;;;;;;;5093129;28;20120;-70
2023/10/17 22:14:08;;;;;;;9.43;4.70;;;;;;;;;;5091888;28;20103;-70
2023/10/17 22:16:35;;;;;;;10.15;5.70;;;;;;;;;;5093061;28;20085;-71
2023/10/17 22:19:01;;;;;;;10.18;5.43;;;;;;;;;;5093057;28;20050;-68
2023/10/17 22:21:27;;;;;;;9.35;4.97;;;;;;;;;;5093169;28;20548;-70
2023/10/17 22:23:53;;;;;;;7.13;4.90;;;;;;;;;;5093264;28;20027;-67
2023/10/17 22:26:19;;;;;;;7.82;4.85;;;;;;;;;;5092947;28;20643;-66
2023/10/17 22:28:45;;;;;;;12.07;5.95;;;;;;;;;;5092863;28;20028;-67
2023/10/17 22:31:11;;;;;;;10.23;5.55;;;;;;;;;;5093084;28;20034;-67
2023/10/17 22:33:38;;;;;;;9.55;5.68;;;;;;;;;;5092508;28;20047;-72
2023/10/17 22:36:07;;;;;;;11.30;5.88;;;;;;;;;;5092991;28;20017;-72
2023/10/17 22:38:34;;;;;;;10.32;5.28;;;;;;;;;;5092544;28;20111;-67
2023/10/17 22:41:00;;;;;;;10.23;5.78;;;;;;;;;;5092679;28;20464;-67
2023/10/17 22:43:26;;;;;;;11.45;5.90;;;;;;;;;;5092708;28;20035;-66
2023/10/17 22:45:52;;;;;;;8.73;5.43;;;;;;;;;;5092511;28;20392;-70
2023/10/17 22:48:17;;;;;;;9.65;5.28;;;;;;;;;;5092554;28;20099;-67
2023/10/17 22:50:46;;;;;;;9.23;5.35;;;;;;;;;;5092447;28;20421;-69
2023/10/17 22:53:12;;;;;;;7.75;5.15;;;;;;;;;;5092175;28;20043;-67
2023/10/17 22:55:38;;;;;;;8.18;5.20;;;;;;;;;;5091224;28;20851;-66
2023/10/17 22:58:04;;;;;;;9.65;5.10;;;;;;;;;;5092224;28;20027;-66
2023/10/17 23:00:31;;;;;;;11.48;5.70;;;;;;;;;;5092069;28;20472;-66
2023/10/17 23:02:57;;;;;;;9.25;5.43;;;;;;;;;;5092148;28;20121;-66
2023/10/17 23:05:24;;;;;;;7.78;4.97;;;;;;;;;;5092122;28;20028;-67
2023/10/17 23:07:50;;;;;;;8.07;4.90;;;;;;;;;;5092001;28;20384;-67
2023/10/17 23:10:16;;;;;;;9.70;5.43;;;;;;;;;;5092339;28;20028;-66
2023/10/17 23:12:42;;;;;;;7.90;4.97;;;;;;;;;;5092052;28;20039;-66
2023/10/17 23:15:10;;;;;;;9.95;5.82;;;;;;;;;;5092087;28;20032;-69
2023/10/17 23:17:39;;;;;;;8.52;5.32;;;;;;;;;;5091931;28;20127;-68
2023/10/17 23:20:12;;;;;;;11.25;5.88;;;;;;;;;;5092687;28;20027;-67
2023/10/17 23:22:40;;;;;;;11.07;5.43;;;;;;;;;;5092519;28;20027;-66
2023/10/17 23:25:07;;;;;;;11.85;5.70;;;;;;;;;;5093154;28;20024;-67
2023/10/17 23:27:32;;;;;;;9.68;5.35;;;;;;;;;;5093779;28;20035;-71
2023/10/17 23:29:58;;;;;;;10.05;5.53;;;;;;;;;;5093477;28;20024;-67
2023/10/17 23:32:26;;;;;;;9.50;5.97;;;;;;;;;;5093189;28;20044;-68
2023/10/17 23:34:51;;;;;;;9.75;5.75;;;;;;;;;;5093384;28;20076;-69
2023/10/17 23:37:17;;;;;;;12.65;5.80;;;;;;;;;;5093560;28;20457;-67
2023/10/17 23:39:44;;;;;;;9.23;5.97;;;;;;;;;;5093305;28;20046;-68
2023/10/17 23:42:10;;;;;;;7.85;4.88;;;;;;;;;;5093171;28;20036;-68
2023/10/17 23:44:35;;;;;;;9.75;5.75;;;;;;;;;;5088578;28;20076;-68
2023/10/17 23:47:01;;;;;;;8.00;5.78;;;;;;;;;;5090557;28;20031;-67
2023/10/17 23:49:28;;;;;;;10.95;5.35;;;;;;;;;;5091735;28;20028;-71
